sensor_id;sensor_type;location;lat;lon;timestamp;pressure;altitude;pressure_sealevel;temperature;humidity
56414;BME280;42318;48.452;19.526;2023-05-11T00:00:28;98471.25;;;20.27;51.96
56414;BME280;42318;48.452;19.526;2023-05-11T00:08:16;98474.25;;;20.25;51.61
56414;BME280;42318;48.452;19.526;2023-05-11T00:15:47;98467.41;;;20.23;51.86
56414;BME280;42318;48.452;19.526;2023-05-11T00:23:17;98462.25;;;20.21;51.83
56414;BME280;42318;48.452;19.526;2023-05-11T00:30:48;98464.66;;;20.18;51.78
56414;BME280;42318;48.452;19.526;2023-05-11T00:38:19;98463.28;;;20.15;51.95
56414;BME280;42318;48.452;19.526;2023-05-11T00:45:50;98457.28;;;20.13;51.80
56414;BME280;42318;48.452;19.526;2023-05-11T00:53:21;98453.41;;;20.09;51.90
56414;BME280;42318;48.452;19.526;2023-05-11T01:00:52;98462.41;;;20.10;52.12
56414;BME280;42318;48.452;19.526;2023-05-11T01:08:42;98455.84;;;20.05;51.94
56414;BME280;42318;48.452;19.526;2023-05-11T01:16:21;98463.75;;;20.07;51.83
56414;BME280;42318;48.452;19.526;2023-05-11T01:31:55;98450.66;;;20.04;52.41
56414;BME280;42318;48.452;19.526;2023-05-11T01:39:34;98466.97;;;20.04;52.11
56414;BME280;42318;48.452;19.526;2023-05-11T01:47:06;98465.84;;;20.00;52.24
56414;BME280;42318;48.452;19.526;2023-05-11T01:54:40;98442.97;;;19.96;52.11
56414;BME280;42318;48.452;19.526;2023-05-11T02:02:12;98448.97;;;19.98;51.95
56414;BME280;42318;48.452;19.526;2023-05-11T02:09:44;98457.13;;;19.98;52.08
56414;BME280;42318;48.452;19.526;2023-05-11T02:17:16;98460.66;;;19.98;52.26
56414;BME280;42318;48.452;19.526;2023-05-11T02:24:50;98444.59;;;19.97;51.92
56414;BME280;42318;48.452;19.526;2023-05-11T02:32:23;98448.69;;;19.99;52.05
56414;BME280;42318;48.452;19.526;2023-05-11T02:39:58;98451.41;;;19.99;51.94
56414;BME280;42318;48.452;19.526;2023-05-11T02:47:32;98452.81;;;20.02;51.83
56414;BME280;42318;48.452;19.526;2023-05-11T02:55:07;98449.53;;;20.00;51.69
56414;BME280;42318;48.452;19.526;2023-05-11T03:02:38;98446.25;;;19.98;51.88
56414;BME280;42318;48.452;19.526;2023-05-11T03:10:09;98449.47;;;19.95;51.98
56414;BME280;42318;48.452;19.526;2023-05-11T03:17:41;98452.69;;;19.92;51.89
56414;BME280;42318;48.452;19.526;2023-05-11T03:25:14;98450.22;;;19.90;51.94
56414;BME280;42318;48.452;19.526;2023-05-11T03:32:45;98453.19;;;19.89;52.04
56414;BME280;42318;48.452;19.526;2023-05-11T03:40:18;98449.09;;;19.86;52.11
56414;BME280;42318;48.452;19.526;2023-05-11T03:47:50;98437.91;;;19.83;51.88
56414;BME280;42318;48.452;19.526;2023-05-11T03:55:21;98443.59;;;19.81;51.93
56414;BME280;42318;48.452;19.526;2023-05-11T04:02:53;98435.44;;;19.81;51.94
56414;BME280;42318;48.452;19.526;2023-05-11T04:10:24;98442.78;;;19.81;51.84
56414;BME280;42318;48.452;19.526;2023-05-11T04:17:55;98438.94;;;19.76;52.08
56414;BME280;42318;48.452;19.526;2023-05-11T04:25:26;98458.53;;;19.79;52.03
56414;BME280;42318;48.452;19.526;2023-05-11T04:32:57;98456.88;;;19.77;52.00
56414;BME280;42318;48.452;19.526;2023-05-11T04:40:28;98462.81;;;19.74;52.10
56414;BME280;42318;48.452;19.526;2023-05-11T04:47:58;98451.94;;;19.74;51.96
56414;BME280;42318;48.452;19.526;2023-05-11T04:55:29;98461.75;;;19.75;52.11
56414;BME280;42318;48.452;19.526;2023-05-11T05:03:00;98462.56;;;19.76;52.15
56414;BME280;42318;48.452;19.526;2023-05-11T05:10:31;98454.16;;;19.77;52.00
56414;BME280;42318;48.452;19.526;2023-05-11T05:18:01;98459.34;;;19.79;52.14
56414;BME280;42318;48.452;19.526;2023-05-11T05:25:32;98461.28;;;19.84;51.87
56414;BME280;42318;48.452;19.526;2023-05-11T05:33:03;98462.44;;;19.88;51.89
56414;BME280;42318;48.452;19.526;2023-05-11T05:40:34;98467.34;;;19.91;52.01
56414;BME280;42318;48.452;19.526;2023-05-11T05:48:07;98470.97;;;19.96;52.04
56414;BME280;42318;48.452;19.526;2023-05-11T05:55:39;98469.63;;;19.99;51.71
56414;BME280;42318;48.452;19.526;2023-05-11T06:03:09;98475.91;;;19.99;51.91
56414;BME280;42318;48.452;19.526;2023-05-11T06:10:40;98474.25;;;19.98;51.83
56414;BME280;42318;48.452;19.526;2023-05-11T06:18:11;98476.16;;;19.98;51.53
56414;BME280;42318;48.452;19.526;2023-05-11T06:25:42;98475.34;;;19.97;51.89
56414;BME280;42318;48.452;19.526;2023-05-11T06:33:12;98481.84;;;19.96;51.60
56414;BME280;42318;48.452;19.526;2023-05-11T06:40:43;98484.88;;;20.00;52.12
56414;BME280;42318;48.452;19.526;2023-05-11T06:48:14;98488.16;;;20.02;51.85
56414;BME280;42318;48.452;19.526;2023-05-11T06:55:45;98488.41;;;20.00;51.83
56414;BME280;42318;48.452;19.526;2023-05-11T07:03:16;98493.84;;;20.00;52.13
56414;BME280;42318;48.452;19.526;2023-05-11T07:10:47;98483.25;;;19.99;52.14
56414;BME280;42318;48.452;19.526;2023-05-11T07:18:18;98486.88;;;20.10;52.20
56414;BME280;42318;48.452;19.526;2023-05-11T07:25:50;98485.59;;;20.17;52.10
56414;BME280;42318;48.452;19.526;2023-05-11T07:33:21;98470.66;;;20.20;51.89
56414;BME280;42318;48.452;19.526;2023-05-11T07:40:52;98479.22;;;20.33;51.99
56414;BME280;42318;48.452;19.526;2023-05-11T07:48:22;98481.19;;;20.38;52.00
56414;BME280;42318;48.452;19.526;2023-05-11T07:55:53;98485.31;;;20.41;51.83
56414;BME280;42318;48.452;19.526;2023-05-11T08:03:24;98483.22;;;20.48;51.60
56414;BME280;42318;48.452;19.526;2023-05-11T08:10:55;98479.50;;;20.59;51.41
56414;BME280;42318;48.452;19.526;2023-05-11T08:18:26;98471.63;;;20.62;51.30
56414;BME280;42318;48.452;19.526;2023-05-11T08:25:57;98472.97;;;20.60;51.39
56414;BME280;42318;48.452;19.526;2023-05-11T08:33:28;98479.44;;;20.54;51.68
56414;BME280;42318;48.452;19.526;2023-05-11T08:41:00;98475.09;;;20.53;51.51
56414;BME280;42318;48.452;19.526;2023-05-11T08:48:31;98467.44;;;20.50;51.81
56414;BME280;42318;48.452;19.526;2023-05-11T08:56:02;98481.59;;;20.52;51.50
56414;BME280;42318;48.452;19.526;2023-05-11T09:03:38;98465.53;;;20.50;52.03
56414;BME280;42318;48.452;19.526;2023-05-11T09:11:10;98460.63;;;20.47;51.98
56414;BME280;42318;48.452;19.526;2023-05-11T09:18:51;98464.41;;;20.46;52.26
56414;BME280;42318;48.452;19.526;2023-05-11T09:26:22;98462.25;;;20.48;52.71
56414;BME280;42318;48.452;19.526;2023-05-11T09:34:18;98462.56;;;20.52;52.47
56414;BME280;42318;48.452;19.526;2023-05-11T09:41:49;98450.84;;;20.51;52.44
56414;BME280;42318;48.452;19.526;2023-05-11T09:49:27;98464.19;;;20.53;52.73
56414;BME280;42318;48.452;19.526;2023-05-11T09:56:58;98440.78;;;20.52;53.28
56414;BME280;42318;48.452;19.526;2023-05-11T10:04:29;98447.88;;;20.53;53.49
56414;BME280;42318;48.452;19.526;2023-05-11T10:12:01;98439.44;;;20.54;53.45
56414;BME280;42318;48.452;19.526;2023-05-11T10:19:33;98436.72;;;20.54;53.36
56414;BME280;42318;48.452;19.526;2023-05-11T10:27:04;98429.94;;;20.57;53.32
56414;BME280;42318;48.452;19.526;2023-05-11T10:34:35;98411.69;;;20.57;53.50
56414;BME280;42318;48.452;19.526;2023-05-11T10:57:47;98392.69;;;20.62;53.49
56414;BME280;42318;48.452;19.526;2023-05-11T11:05:35;98385.31;;;20.58;53.35
56414;BME280;42318;48.452;19.526;2023-05-11T11:13:09;98392.69;;;20.62;53.31
56414;BME280;42318;48.452;19.526;2023-05-11T11:20:48;98390.22;;;20.61;53.31
56414;BME280;42318;48.452;19.526;2023-05-11T11:28:19;98388.88;;;20.63;53.39
56414;BME280;42318;48.452;19.526;2023-05-11T11:35:50;98387.78;;;20.64;53.07
56414;BME280;42318;48.452;19.526;2023-05-11T11:43:24;98394.94;;;20.76;52.85
56414;BME280;42318;48.452;19.526;2023-05-11T11:51:13;98380.16;;;20.61;53.13
56414;BME280;42318;48.452;19.526;2023-05-11T12:06:19;98371.69;;;20.58;53.08
56414;BME280;42318;48.452;19.526;2023-05-11T12:13:51;98366.50;;;20.56;53.15
56414;BME280;42318;48.452;19.526;2023-05-11T12:21:24;98372.22;;;20.55;52.83
56414;BME280;42318;48.452;19.526;2023-05-11T12:29:25;98336.28;;;20.53;52.99
56414;BME280;42318;48.452;19.526;2023-05-11T12:36:56;98326.47;;;20.52;53.01
56414;BME280;42318;48.452;19.526;2023-05-11T12:44:30;98328.09;;;20.53;52.87
56414;BME280;42318;48.452;19.526;2023-05-11T12:52:05;98331.38;;;20.55;52.92
56414;BME280;42318;48.452;19.526;2023-05-11T12:59:40;98339.56;;;20.55;52.91
56414;BME280;42318;48.452;19.526;2023-05-11T13:07:11;98324.03;;;20.55;52.88
56414;BME280;42318;48.452;19.526;2023-05-11T13:14:47;98321.84;;;20.52;52.74
56414;BME280;42318;48.452;19.526;2023-05-11T13:22:18;98310.13;;;20.52;52.95
56414;BME280;42318;48.452;19.526;2023-05-11T13:29:49;98305.78;;;20.51;52.40
56414;BME280;42318;48.452;19.526;2023-05-11T13:37:20;98305.78;;;20.51;52.50
56414;BME280;42318;48.452;19.526;2023-05-11T13:44:50;98305.78;;;20.51;52.72
56414;BME280;42318;48.452;19.526;2023-05-11T13:52:21;98303.63;;;20.53;52.92
56414;BME280;42318;48.452;19.526;2023-05-11T13:59:52;98284.84;;;20.56;52.46
56414;BME280;42318;48.452;19.526;2023-05-11T14:07:23;98272.63;;;20.59;52.77
56414;BME280;42318;48.452;19.526;2023-05-11T14:14:54;98280.25;;;20.62;52.73
56414;BME280;42318;48.452;19.526;2023-05-11T14:22:25;98269.09;;;20.63;52.63
56414;BME280;42318;48.452;19.526;2023-05-11T14:29:57;98274.88;;;20.77;52.32
56414;BME280;42318;48.452;19.526;2023-05-11T14:37:28;98272.63;;;20.64;52.51
56414;BME280;42318;48.452;19.526;2023-05-11T14:44:59;98270.44;;;20.61;52.74
56414;BME280;42318;48.452;19.526;2023-05-11T14:52:30;98258.44;;;20.57;52.71
56414;BME280;42318;48.452;19.526;2023-05-11T15:00:01;98269.88;;;20.54;52.70
56414;BME280;42318;48.452;19.526;2023-05-11T15:07:31;98260.59;;;20.50;52.82
56414;BME280;42318;48.452;19.526;2023-05-11T15:15:03;98261.38;;;20.45;52.73
56414;BME280;42318;48.452;19.526;2023-05-11T15:22:34;98262.75;;;20.48;52.95
56414;BME280;42318;48.452;19.526;2023-05-11T15:30:05;98259.22;;;20.47;52.84
56414;BME280;42318;48.452;19.526;2023-05-11T15:37:36;98261.66;;;20.44;53.29
56414;BME280;42318;48.452;19.526;2023-05-11T15:45:07;98265.47;;;20.43;52.81
56414;BME280;42318;48.452;19.526;2023-05-11T15:52:38;98267.34;;;20.42;52.60
56414;BME280;42318;48.452;19.526;2023-05-11T16:00:14;98262.19;;;20.41;52.75
56414;BME280;42318;48.452;19.526;2023-05-11T16:07:45;98265.13;;;20.39;52.78
56414;BME280;42318;48.452;19.526;2023-05-11T16:15:16;98257.47;;;20.36;52.78
56414;BME280;42318;48.452;19.526;2023-05-11T16:22:47;98264.53;;;20.32;52.81
56414;BME280;42318;48.452;19.526;2023-05-11T16:30:17;98271.34;;;20.34;52.93
56414;BME280;42318;48.452;19.526;2023-05-11T16:37:48;98265.59;;;20.31;52.74
56414;BME280;42318;48.452;19.526;2023-05-11T16:45:19;98275.41;;;20.32;52.83
56414;BME280;42318;48.452;19.526;2023-05-11T16:52:50;98277.31;;;20.31;52.95
56414;BME280;42318;48.452;19.526;2023-05-11T17:00:21;98271.56;;;20.28;52.96
56414;BME280;42318;48.452;19.526;2023-05-11T17:07:52;98270.19;;;20.25;52.73
56414;BME280;42318;48.452;19.526;2023-05-11T17:15:23;98283.28;;;20.28;52.81
56414;BME280;42318;48.452;19.526;2023-05-11T17:22:53;98281.63;;;20.27;52.92
56414;BME280;42318;48.452;19.526;2023-05-11T17:30:25;98284.63;;;20.26;52.97
56414;BME280;42318;48.452;19.526;2023-05-11T17:37:56;98285.44;;;20.26;52.54
56414;BME280;42318;48.452;19.526;2023-05-11T17:45:27;98284.34;;;20.27;52.70
56414;BME280;42318;48.452;19.526;2023-05-11T17:52:58;98287.06;;;20.27;52.92
56414;BME280;42318;48.452;19.526;2023-05-11T18:00:29;98300.16;;;20.30;52.63
56414;BME280;42318;48.452;19.526;2023-05-11T18:08:00;98294.97;;;20.29;52.46
56414;BME280;42318;48.452;19.526;2023-05-11T18:15:32;98314.03;;;20.29;52.63
56414;BME280;42318;48.452;19.526;2023-05-11T18:23:03;98316.19;;;20.27;52.39
56414;BME280;42318;48.452;19.526;2023-05-11T18:30:34;98320.00;;;20.26;52.48
56414;BME280;42318;48.452;19.526;2023-05-11T18:38:05;98321.88;;;20.25;52.54
56414;BME280;42318;48.452;19.526;2023-05-11T18:45:37;98340.38;;;20.23;52.64
56414;BME280;42318;48.452;19.526;2023-05-11T18:53:08;98343.09;;;20.23;52.88
56414;BME280;42318;48.452;19.526;2023-05-11T19:00:38;98344.16;;;20.22;52.75
56414;BME280;42318;48.452;19.526;2023-05-11T19:08:14;98347.97;;;20.21;52.73
56414;BME280;42318;48.452;19.526;2023-05-11T19:15:44;98347.97;;;20.21;52.61
56414;BME280;42318;48.452;19.526;2023-05-11T19:23:15;98347.41;;;20.19;52.54
56414;BME280;42318;48.452;19.526;2023-05-11T19:30:46;98357.47;;;20.19;52.49
56414;BME280;42318;48.452;19.526;2023-05-11T19:38:17;98348.47;;;20.13;52.68
56414;BME280;42318;48.452;19.526;2023-05-11T19:45:48;98360.97;;;20.14;52.60
56414;BME280;42318;48.452;19.526;2023-05-11T19:53:18;98359.34;;;20.13;52.88
56414;BME280;42318;48.452;19.526;2023-05-11T20:00:49;98365.03;;;20.12;52.75
56414;BME280;42318;48.452;19.526;2023-05-11T20:08:20;98378.91;;;20.10;52.89
56414;BME280;42318;48.452;19.526;2023-05-11T20:15:51;98369.09;;;20.09;52.55
56414;BME280;42318;48.452;19.526;2023-05-11T20:23:22;98356.56;;;20.08;52.51
56414;BME280;42318;48.452;19.526;2023-05-11T20:30:54;98366.38;;;20.09;52.53
56414;BME280;42318;48.452;19.526;2023-05-11T20:38:25;98367.47;;;20.08;52.55
56414;BME280;42318;48.452;19.526;2023-05-11T20:46:03;98369.09;;;20.09;52.59
56414;BME280;42318;48.452;19.526;2023-05-11T20:53:34;98354.16;;;20.12;52.45
56414;BME280;42318;48.452;19.526;2023-05-11T21:01:05;98358.25;;;20.14;52.51
56414;BME280;42318;48.452;19.526;2023-05-11T21:08:36;98357.22;;;20.20;52.38
56414;BME280;42318;48.452;19.526;2023-05-11T21:16:07;98356.19;;;20.26;52.28
56414;BME280;42318;48.452;19.526;2023-05-11T21:23:38;98353.19;;;20.28;52.29
56414;BME280;42318;48.452;19.526;2023-05-11T21:31:08;98356.22;;;20.31;52.15
56414;BME280;42318;48.452;19.526;2023-05-11T21:38:39;98357.84;;;20.32;51.86
56414;BME280;42318;48.452;19.526;2023-05-11T21:46:10;98358.41;;;20.34;51.80
56414;BME280;42318;48.452;19.526;2023-05-11T21:53:42;98363.94;;;20.40;51.87
56414;BME280;42318;48.452;19.526;2023-05-11T22:01:13;98362.88;;;20.41;51.81
56414;BME280;42318;48.452;19.526;2023-05-11T22:08:44;98366.16;;;20.43;51.65
56414;BME280;42318;48.452;19.526;2023-05-11T22:16:15;98354.19;;;20.44;51.60
56414;BME280;42318;48.452;19.526;2023-05-11T22:23:46;98362.91;;;20.46;51.50
56414;BME280;42318;48.452;19.526;2023-05-11T22:31:17;98363.47;;;20.48;51.54
56414;BME280;42318;48.452;19.526;2023-05-11T22:38:48;98390.16;;;20.51;51.52
56414;BME280;42318;48.452;19.526;2023-05-11T22:46:19;98392.59;;;20.52;51.38
56414;BME280;42318;48.452;19.526;2023-05-11T22:53:50;98402.97;;;20.55;51.37
56414;BME280;42318;48.452;19.526;2023-05-11T23:01:21;98402.16;;;20.55;51.42
56414;BME280;42318;48.452;19.526;2023-05-11T23:08:52;98388.50;;;20.50;51.29
56414;BME280;42318;48.452;19.526;2023-05-11T23:16:23;98386.59;;;20.50;51.48
56414;BME280;42318;48.452;19.526;2023-05-11T23:23:54;98400.47;;;20.49;51.36
56414;BME280;42318;48.452;19.526;2023-05-11T23:31:25;98403.47;;;20.47;51.47
56414;BME280;42318;48.452;19.526;2023-05-11T23:38:57;98397.47;;;20.45;51.34
56414;BME280;42318;48.452;19.526;2023-05-11T23:46:28;98397.97;;;20.42;51.50
56414;BME280;42318;48.452;19.526;2023-05-11T23:53:59;98400.97;;;20.41;51.63
